Time;durP1;ratioP1;P1;durP2;ratioP2;P2;SDS_P1;SDS_P2;PMS_P1;PMS_P2;Temp;Humidity;BMP_temperature;BMP_pressure;BME280_temperature;BME280_humidity;BME280_pressure;Samples;Min_cycle;Max_cycle;Signal;HPM_P1;HPM_P2
2022/02/04 00:03:04;;;;;;;14.73;2.45;;;;;;;-149.78;100.00;50377.56;5059605;28;20041;-63
2022/02/04 00:06:57;;;;;;;15.70;1.90;;;;;;;-149.78;100.00;50369.75;5060802;28;20048;-63
2022/02/04 00:20:23;;;;;;;9.85;2.63;;;;;;;-149.78;100.00;50358.00;5064531;28;20763;-63
2022/02/04 00:23:07;;;;;;;8.00;1.88;;;;;;;-149.78;100.00;50420.59;5062597;28;20045;-63
2022/02/04 00:25:49;;;;;;;9.80;1.58;;;;;;;-149.78;100.00;50373.66;5073025;28;20037;-63
2022/02/04 00:31:05;;;;;;;10.13;2.90;;;;;;;-149.78;100.00;50354.09;5062436;28;20429;-63
2022/02/04 00:33:33;;;;;;;7.07;1.33;;;;;;;-149.78;100.00;50385.38;5072863;28;20496;-63
2022/02/04 00:36:08;;;;;;;13.38;3.47;;;;;;;-149.78;100.00;50399.09;5062784;28;20475;-63
2022/02/04 00:38:37;;;;;;;8.60;1.65;;;;;;;-149.78;100.00;50381.47;5064786;28;20427;-63
2022/02/04 00:41:09;;;;;;;16.10;2.03;;;;;;;-149.78;100.00;50385.38;5071763;28;20441;-64
2022/02/04 00:43:36;;;;;;;7.55;1.60;;;;;;;-149.78;100.00;50389.31;5072516;28;20090;-64
2022/02/04 01:28:44;;;;;;;18.50;2.47;;;;;;;-149.78;100.00;50432.31;5061429;28;20056;-65
2022/02/04 01:31:16;;;;;;;8.93;2.60;;;;;;;-149.78;100.00;50377.56;5071732;28;20036;-65
2022/02/04 01:33:44;;;;;;;8.15;1.92;;;;;;;-149.78;100.00;50401.03;5044021;28;20033;-65
2022/02/04 01:36:09;;;;;;;5.88;1.23;;;;;;;-149.78;100.00;50401.03;5064385;28;20033;-65
2022/02/04 01:38:35;;;;;;;1.05;0.80;;;;;;;-149.78;100.00;50412.78;5066879;28;20089;-66
2022/02/04 01:41:01;;;;;;;0.73;0.70;;;;;;;-149.78;100.00;50397.13;5059784;28;20037;-65
2022/02/04 01:43:27;;;;;;;1.88;0.70;;;;;;;-149.78;100.00;50377.56;5071512;28;20082;-65
2022/02/04 01:45:56;;;;;;;1.75;0.70;;;;;;;-149.78;100.00;50387.34;5060691;28;20515;-65
2022/02/04 01:48:22;;;;;;;1.80;0.70;;;;;;;-149.78;100.00;50401.03;5065148;28;20520;-65
2022/02/04 01:50:49;;;;;;;1.58;0.30;;;;;;;-149.78;100.00;50412.78;5068215;28;20123;-65
2022/02/04 01:53:19;;;;;;;1.75;0.43;;;;;;;-149.78;100.00;50408.84;5056859;28;20044;-65
2022/02/04 01:55:47;;;;;;;0.30;0.20;;;;;;;-149.78;100.00;50440.16;5069990;28;20047;-65
2022/02/04 01:58:12;;;;;;;0.47;0.32;;;;;;;-149.78;100.00;50440.16;5063223;28;20051;-65
2022/02/04 02:00:39;;;;;;;0.40;0.30;;;;;;;-149.78;100.00;50436.25;5061699;28;20033;-65
2022/02/04 02:03:07;;;;;;;1.27;0.40;;;;;;;-149.78;100.00;50424.50;5070351;28;20414;-65
2022/02/04 02:05:33;;;;;;;0.75;0.20;;;;;;;-149.78;100.00;50428.41;5057857;28;20472;-65
2022/02/04 02:08:11;;;;;;;0.30;0.28;;;;;;;-149.78;100.00;50457.75;5067696;28;20175;-65
2022/02/04 02:10:38;;;;;;;0.22;0.20;;;;;;;-149.78;100.00;50436.25;5066462;28;20365;-65
2022/02/04 02:13:21;;;;;;;0.20;0.20;;;;;;;-149.78;100.00;50420.59;5058383;28;20102;-65
2022/02/04 02:16:18;;;;;;;0.40;0.20;;;;;;;-149.78;100.00;50436.25;5044664;28;20066;-65
2022/02/04 02:51:15;;;;;;;0.20;0.20;;;;;;;-149.78;100.00;50426.47;5065211;28;20464;-65
2022/02/04 02:53:52;;;;;;;1.55;0.30;;;;;;;-149.78;100.00;50487.09;5056775;28;20755;-65
2022/02/04 02:58:52;;;;;;;1.75;0.50;;;;;;;-149.78;100.00;50422.56;5065941;28;20063;-65
2022/02/04 03:01:17;;;;;;;0.55;0.28;;;;;;;-149.78;100.00;50436.25;5056302;28;20144;-65
2022/02/04 03:03:48;;;;;;;0.28;0.13;;;;;;;-149.78;100.00;50483.19;5056256;28;20036;-65
2022/02/04 03:06:13;;;;;;;0.30;0.30;;;;;;;-149.78;100.00;50451.88;5057390;28;20032;-65
2022/02/04 03:08:39;;;;;;;0.30;0.20;;;;;;;-149.78;100.00;50434.28;5061147;28;20372;-65
2022/02/04 03:11:05;;;;;;;0.20;0.20;;;;;;;-149.78;100.00;50459.72;5053064;28;20041;-65
2022/02/04 03:13:32;;;;;;;0.90;0.22;;;;;;;-149.78;100.00;50447.97;5054029;28;20041;-65
2022/02/04 03:15:59;;;;;;;0.32;0.20;;;;;;;-149.78;100.00;50459.72;5059792;28;20056;-63
2022/02/04 03:18:28;;;;;;;1.52;0.20;;;;;;;-149.78;100.00;50463.63;5061572;28;20037;-63
2022/02/04 03:20:59;;;;;;;0.40;0.30;;;;;;;-149.78;100.00;50426.47;5053064;28;20472;-63
2022/02/04 03:23:25;;;;;;;0.45;0.25;;;;;;;-149.78;100.00;50479.28;5054494;28;20029;-63
2022/02/04 03:25:58;;;;;;;0.20;0.20;;;;;;;-149.78;100.00;50459.72;5052809;28;20036;-63
2022/02/04 03:28:27;;;;;;;0.70;0.40;;;;;;;-149.78;100.00;50467.53;5053307;28;20068;-63
2022/02/04 03:30:53;;;;;;;1.85;0.60;;;;;;;-149.78;100.00;50463.63;5053744;28;20057;-64
2022/02/04 03:33:22;;;;;;;0.77;0.40;;;;;;;-149.78;100.00;50440.16;5054150;28;20036;-63
2022/02/04 03:35:48;;;;;;;2.45;0.80;;;;;;;-149.78;100.00;50451.88;5067890;28;20052;-63
2022/02/04 03:38:13;;;;;;;2.10;0.80;;;;;;;-149.78;100.00;50467.53;5061646;28;20040;-63
2022/02/04 03:40:39;;;;;;;2.45;0.73;;;;;;;-149.78;100.00;50487.09;5060618;28;20534;-63
2022/02/04 03:43:04;;;;;;;1.98;0.88;;;;;;;-149.78;100.00;50467.53;5067408;28;20471;-63
2022/02/04 03:45:30;;;;;;;4.25;1.00;;;;;;;-149.78;100.00;50422.56;5054441;28;20056;-65
2022/02/04 03:47:56;;;;;;;3.13;0.80;;;;;;;-149.78;100.00;50449.94;5052667;28;20040;-65
2022/02/04 03:50:22;;;;;;;5.80;0.85;;;;;;;-149.78;100.00;50475.34;5045899;28;20029;-65
2022/02/04 03:52:48;;;;;;;2.13;0.60;;;;;;;-149.78;100.00;50432.31;5052823;28;20051;-65
2022/02/04 03:55:14;;;;;;;4.55;0.80;;;;;;;-149.78;100.00;50457.75;5053179;28;20484;-65
2022/02/04 03:57:41;;;;;;;0.95;0.63;;;;;;;-149.78;100.00;50451.88;5053454;28;20538;-66
2022/02/04 04:00:09;;;;;;;4.68;0.82;;;;;;;-149.78;100.00;50489.03;5052787;28;20388;-65
2022/02/04 04:02:35;;;;;;;2.38;0.65;;;;;;;-149.78;100.00;50483.19;5061209;28;20036;-65
2022/02/04 04:05:00;;;;;;;3.63;0.60;;;;;;;-149.78;100.00;50487.09;5052639;28;20039;-65
2022/02/04 04:07:26;;;;;;;0.93;0.47;;;;;;;-149.78;100.00;50467.53;5058353;28;20037;-65
2022/02/04 04:10:00;;;;;;;1.10;0.40;;;;;;;-149.78;100.00;50494.91;5058450;28;20043;-65
2022/02/04 04:12:26;;;;;;;2.60;0.40;;;;;;;-149.78;100.00;50487.09;5062274;28;20037;-65
2022/02/04 04:14:56;;;;;;;1.35;0.50;;;;;;;-149.78;100.00;50444.06;5067364;28;20439;-65
2022/02/04 04:17:23;;;;;;;3.25;0.65;;;;;;;-149.78;100.00;50440.16;5054927;28;20048;-65
2022/02/04 04:19:48;;;;;;;0.60;0.32;;;;;;;-149.78;100.00;50463.63;5067392;28;20033;-65
2022/02/04 04:22:14;;;;;;;1.58;0.47;;;;;;;-149.78;100.00;50459.72;5061368;28;20079;-65
2022/02/04 04:24:40;;;;;;;3.13;0.70;;;;;;;-149.78;100.00;50479.28;5057263;28;20037;-65
2022/02/04 04:27:05;;;;;;;3.08;0.50;;;;;;;-149.78;100.00;50451.88;5068445;28;20097;-65
2022/02/04 04:29:32;;;;;;;0.52;0.40;;;;;;;-149.78;100.00;50461.66;5056035;28;20496;-65
2022/02/04 04:31:58;;;;;;;2.65;0.50;;;;;;;-149.78;100.00;50461.66;5065981;28;20037;-65
2022/02/04 04:34:24;;;;;;;4.57;0.47;;;;;;;-149.78;100.00;50477.31;5062738;28;20045;-65
2022/02/04 04:36:50;;;;;;;2.67;0.60;;;;;;;-149.78;100.00;50465.56;5046163;28;20041;-65
2022/02/04 04:39:26;;;;;;;4.55;0.75;;;;;;;-149.78;100.00;50492.97;5056406;28;20048;-65
2022/02/04 04:45:02;;;;;;;0.50;0.50;;;;;;;-149.78;100.00;50485.13;5045617;28;20041;-65
2022/02/04 05:28:12;;;;;;;2.75;0.80;;;;;;;-149.78;100.00;50526.22;5067067;28;20396;-65
2022/02/04 05:30:38;;;;;;;1.67;0.60;;;;;;;-149.78;100.00;50440.16;5067303;28;20040;-65
2022/02/04 05:33:03;;;;;;;2.17;0.88;;;;;;;-149.78;100.00;50471.44;5059410;28;20098;-66
2022/02/04 05:35:29;;;;;;;0.98;0.57;;;;;;;-149.78;100.00;50481.22;5070489;28;20108;-66
2022/02/04 05:37:55;;;;;;;2.65;0.60;;;;;;;-149.78;100.00;50516.44;5061250;28;20544;-65
2022/02/04 05:40:24;;;;;;;3.30;0.80;;;;;;;-149.78;100.00;50459.72;5065534;28;20489;-66
2022/02/04 05:42:59;;;;;;;0.50;0.50;;;;;;;-149.78;100.00;50471.44;5068665;28;20471;-66
2022/02/04 05:45:29;;;;;;;1.20;0.50;;;;;;;-149.78;100.00;50502.75;5057023;28;20090;-66
2022/02/04 05:48:00;;;;;;;1.00;0.55;;;;;;;-149.78;100.00;50440.16;5068084;28;20060;-66
2022/02/04 05:55:48;;;;;;;1.02;0.60;;;;;;;-149.78;100.00;50506.66;5070893;28;20029;-65
2022/02/04 05:58:27;;;;;;;1.48;0.50;;;;;;;-149.78;100.00;50528.16;5063105;28;20044;-65
2022/02/04 06:22:26;;;;;;;3.17;0.77;;;;;;;-149.78;100.00;50455.81;5065445;28;20052;-66
2022/02/04 06:24:53;;;;;;;3.28;0.60;;;;;;;-149.78;100.00;50498.81;5068316;28;20040;-65
2022/02/04 06:27:22;;;;;;;1.33;0.80;;;;;;;-149.78;100.00;50438.19;5057496;28;20068;-65
2022/02/04 06:29:50;;;;;;;2.67;0.60;;;;;;;-149.78;100.00;50502.75;5069016;28;20032;-65
2022/02/04 06:32:17;;;;;;;1.85;0.77;;;;;;;-149.78;100.00;50491.00;5062962;28;20060;-66
2022/02/04 06:34:44;;;;;;;4.40;0.93;;;;;;;-149.78;100.00;50485.13;5061109;28;20472;-65
2022/02/04 06:37:10;;;;;;;3.25;1.38;;;;;;;-149.78;100.00;50489.03;5070340;28;20028;-65
2022/02/04 06:39:35;;;;;;;6.03;0.93;;;;;;;-149.78;100.00;50487.09;5041104;28;20028;-65
2022/02/04 06:42:02;;;;;;;4.60;1.83;;;;;;;-149.78;100.00;50510.56;5065506;28;20064;-65
2022/02/04 06:44:27;;;;;;;3.28;0.80;;;;;;;-149.78;100.00;50528.16;5055972;28;20049;-65
2022/02/04 06:46:53;;;;;;;2.03;0.93;;;;;;;-149.78;100.00;50483.19;5053870;28;20044;-65
2022/02/04 06:49:18;;;;;;;3.65;0.90;;;;;;;-149.78;100.00;50530.13;5070139;28;20043;-65
2022/02/04 06:51:44;;;;;;;3.10;1.10;;;;;;;-149.78;100.00;50487.09;5058315;28;20450;-65
2022/02/04 06:54:09;;;;;;;3.08;0.80;;;;;;;-149.78;100.00;50498.81;5065459;28;20075;-65
2022/02/04 06:56:36;;;;;;;1.42;0.88;;;;;;;-149.78;100.00;50479.28;5065353;28;20036;-65
2022/02/04 06:59:03;;;;;;;5.57;1.10;;;;;;;-149.78;100.00;50506.66;5058013;28;20037;-63
2022/02/04 07:01:30;;;;;;;2.78;1.27;;;;;;;-149.78;100.00;50491.00;5056231;28;20125;-64
2022/02/04 07:03:56;;;;;;;8.13;1.10;;;;;;;-149.78;100.00;50483.19;5067091;28;20120;-63
2022/02/04 07:06:22;;;;;;;4.10;1.35;;;;;;;-149.78;100.00;50479.28;5045606;28;20476;-63
2022/02/04 07:09:43;;;;;;;4.43;0.90;;;;;;;-149.78;100.00;50491.00;5039859;28;20041;-63
2022/02/04 07:14:11;;;;;;;8.35;1.52;;;;;;;-149.78;100.00;50475.34;5036299;28;20354;-63
2022/02/04 07:21:47;;;;;;;4.22;1.05;;;;;;;-149.78;100.00;50522.28;5041117;28;20381;-63
2022/02/04 07:24:13;;;;;;;6.07;1.38;;;;;;;-149.78;100.00;50516.44;5040259;28;20037;-64
2022/02/04 07:26:38;;;;;;;3.45;1.27;;;;;;;-149.78;100.00;50487.09;5042456;28;20029;-64
2022/02/04 07:29:04;;;;;;;5.43;1.25;;;;;;;-149.78;100.00;50514.47;5045381;28;20383;-63
2022/02/04 07:31:35;;;;;;;4.45;1.25;;;;;;;-149.78;100.00;50491.00;5053384;28;20631;-63
2022/02/04 07:41:49;;;;;;;11.45;2.17;;;;;;;-149.78;100.00;50512.50;5067424;28;20025;-63
2022/02/04 07:44:16;;;;;;;8.18;1.98;;;;;;;-149.78;100.00;50489.03;5048852;28;20112;-63
2022/02/04 07:46:43;;;;;;;16.83;2.78;;;;;;;-149.78;100.00;50504.69;5065173;28;20040;-64
2022/02/04 07:49:11;;;;;;;11.63;2.20;;;;;;;-149.78;100.00;50498.81;5042412;28;20033;-64
2022/02/04 07:51:36;;;;;;;7.75;2.65;;;;;;;-149.78;100.00;50479.28;5042632;28;20044;-63
2022/02/04 07:54:02;;;;;;;8.88;2.30;;;;;;;-149.78;100.00;50498.81;5047861;28;20062;-62
2022/02/04 07:56:28;;;;;;;13.75;3.20;;;;;;;-149.78;100.00;50491.00;5049127;28;20044;-63
2022/02/04 07:58:58;;;;;;;6.53;2.33;;;;;;;-149.78;100.00;50479.28;5047450;28;20038;-64
2022/02/04 08:01:29;;;;;;;10.18;2.72;;;;;;;-149.78;100.00;50463.63;5063804;28;20033;-63
2022/02/04 08:06:42;;;;;;;7.35;2.67;;;;;;;-149.78;100.00;50510.56;5040866;28;20405;-63
2022/02/04 08:12:33;;;;;;;11.57;2.50;;;;;;;-149.78;100.00;50514.47;5039164;28;20514;-63
2022/02/04 08:23:01;;;;;;;10.30;2.72;;;;;;;-149.78;100.00;50506.66;5041684;28;20555;-63
2022/02/04 08:54:29;;;;;;;9.73;2.70;;;;;;;-149.78;100.00;50506.66;5063865;28;20040;-64
2022/02/04 08:57:09;;;;;;;13.40;2.78;;;;;;;-149.78;100.00;50491.00;5057684;28;20040;-64
2022/02/04 09:02:32;;;;;;;13.82;3.63;;;;;;;-149.78;100.00;50502.75;5048497;28;20037;-64
2022/02/04 09:04:59;;;;;;;12.27;3.25;;;;;;;-149.78;100.00;50459.72;5050161;28;20044;-64
2022/02/04 09:07:30;;;;;;;21.80;3.97;;;;;;;-149.78;100.00;50463.63;5060239;28;20111;-64
2022/02/04 09:09:59;;;;;;;18.48;4.50;;;;;;;-149.78;100.00;50487.09;5052352;28;20036;-64
2022/02/04 09:20:35;;;;;;;13.48;4.90;;;;;;;-149.78;100.00;50530.13;5054103;28;20041;-64
2022/02/04 09:23:01;;;;;;;14.75;4.75;;;;;;;-149.78;100.00;50498.81;5068976;28;20060;-63
2022/02/04 09:25:28;;;;;;;11.45;5.15;;;;;;;-149.78;100.00;50471.44;5070474;28;20032;-64
2022/02/04 09:27:56;;;;;;;7.75;4.80;;;;;;;-149.78;100.00;50477.31;5059867;28;20105;-63
2022/02/04 09:30:24;;;;;;;14.50;5.22;;;;;;;-149.78;100.00;50471.44;5063390;28;20472;-64
2022/02/04 09:32:50;;;;;;;10.52;5.00;;;;;;;-149.78;100.00;50508.59;5067076;28;20074;-64
2022/02/04 09:35:21;;;;;;;12.40;4.55;;;;;;;-149.78;100.00;50477.31;5058563;28;20388;-64
2022/02/04 09:37:48;;;;;;;8.77;4.03;;;;;;;-149.78;100.00;50467.53;5068150;28;20032;-64
2022/02/04 09:40:15;;;;;;;8.35;3.63;;;;;;;-149.78;100.00;50491.00;5055213;28;20087;-64
2022/02/04 09:42:42;;;;;;;8.05;3.40;;;;;;;-149.78;100.00;50491.00;5062523;28;20032;-64
2022/02/04 09:45:11;;;;;;;7.72;2.80;;;;;;;-149.78;100.00;50426.47;5058442;28;20047;-64
2022/02/04 09:47:39;;;;;;;9.40;2.50;;;;;;;-149.78;100.00;50455.81;5037826;28;20025;-64
2022/02/04 09:50:10;;;;;;;7.05;2.10;;;;;;;-149.78;100.00;50477.31;5040836;28;20144;-64
2022/02/04 10:10:39;;;;;;;8.77;1.45;;;;;;;-149.78;100.00;50463.63;5046324;28;20037;-64
2022/02/04 10:15:54;;;;;;;6.47;1.88;;;;;;;-149.78;100.00;50471.44;5052111;28;20460;-64
2022/02/04 10:18:47;;;;;;;7.82;1.73;;;;;;;-149.78;100.00;50432.31;5063516;28;20429;-64
2022/02/04 10:21:15;;;;;;;5.65;1.90;;;;;;;-149.78;100.00;50459.72;5070422;28;20044;-64
2022/02/04 10:23:48;;;;;;;12.10;2.05;;;;;;;-149.78;100.00;50453.84;5058218;28;20078;-64
2022/02/04 10:26:15;;;;;;;17.63;2.30;;;;;;;-149.78;100.00;50426.47;5065312;28;20126;-63
2022/02/04 10:28:41;;;;;;;10.68;2.50;;;;;;;-149.78;100.00;50463.63;5066541;28;20366;-63
2022/02/04 10:31:20;;;;;;;4.47;1.80;;;;;;;-149.78;100.00;50467.53;5057703;28;20045;-64
2022/02/04 10:33:58;;;;;;;16.20;2.35;;;;;;;-149.78;100.00;50475.34;5043712;28;20081;-64
2022/02/04 10:37:16;;;;;;;10.48;2.13;;;;;;;-149.78;100.00;50459.72;5063706;28;20177;-64
2022/02/04 10:50:49;;;;;;;14.05;2.75;;;;;;;-149.78;100.00;50428.41;5052175;28;20067;-64
2022/02/04 11:04:09;;;;;;;4.35;0.95;;;;;;;-149.78;100.00;50491.00;5041377;28;20063;-64
2022/02/04 11:07:13;;;;;;;1.17;0.77;;;;;;;-149.78;100.00;50479.28;5040976;28;20033;-64
2022/02/04 11:10:02;;;;;;;2.00;1.25;;;;;;;-149.78;100.00;50447.97;5042760;28;20033;-64
2022/02/04 11:35:00;;;;;;;22.17;5.10;;;;;;;-149.78;100.00;50447.97;5043168;28;20566;-63
2022/02/04 11:47:52;;;;;;;7.28;1.98;;;;;;;-149.78;100.00;50455.81;5069062;28;19939;-63
2022/02/04 11:52:27;;;;;;;10.50;1.58;;;;;;;-149.78;100.00;50420.59;5056074;28;20067;-64
2022/02/04 11:54:54;;;;;;;6.45;2.38;;;;;;;-149.78;100.00;50416.69;5058870;28;20060;-64
2022/02/04 11:57:26;;;;;;;11.10;1.80;;;;;;;-149.78;100.00;50430.38;5058815;28;20112;-63
2022/02/04 11:59:56;;;;;;;6.45;1.33;;;;;;;-149.78;100.00;50420.59;5038579;28;20098;-64
2022/02/04 12:02:29;;;;;;;9.88;1.77;;;;;;;-149.78;100.00;50449.94;5051251;28;20400;-63
2022/02/04 12:05:04;;;;;;;11.15;1.80;;;;;;;-149.78;100.00;50461.66;5065450;28;20040;-63
2022/02/04 12:07:36;;;;;;;8.07;1.27;;;;;;;-149.78;100.00;50424.50;5056032;28;20033;-63
2022/02/04 12:10:03;;;;;;;10.32;1.95;;;;;;;-149.78;100.00;50420.59;5043842;28;20040;-64
2022/02/04 12:12:58;;;;;;;13.85;1.95;;;;;;;-149.78;100.00;50432.31;5036771;28;20465;-64
2022/02/04 12:15:36;;;;;;;7.88;1.67;;;;;;;-149.78;100.00;50438.19;5036320;28;20026;-63
2022/02/04 12:18:08;;;;;;;11.63;1.95;;;;;;;-149.78;100.00;50459.72;5039624;28;20032;-64
2022/02/04 12:20:56;;;;;;;11.32;1.35;;;;;;;-149.78;100.00;50471.44;5046165;28;20179;-64
2022/02/04 12:23:41;;;;;;;6.07;1.10;;;;;;;-149.78;100.00;50487.09;5045395;28;20025;-64
2022/02/04 12:26:10;;;;;;;8.15;1.50;;;;;;;-149.78;100.00;50424.50;5057458;28;20043;-63
2022/02/04 12:28:42;;;;;;;11.57;1.83;;;;;;;-149.78;100.00;50487.09;5054544;28;20056;-64
2022/02/04 12:31:12;;;;;;;7.18;1.45;;;;;;;-149.78;100.00;50475.34;5057339;28;20087;-64
2022/02/04 12:33:45;;;;;;;8.75;1.48;;;;;;;-149.78;100.00;50485.13;5040273;28;20104;-63
2022/02/04 12:36:24;;;;;;;6.93;1.20;;;;;;;-149.78;100.00;50461.66;5047157;28;20091;-63
2022/02/04 12:39:01;;;;;;;9.15;1.40;;;;;;;-149.78;100.00;50479.28;5047926;28;20438;-63
2022/02/04 12:41:30;;;;;;;16.83;1.83;;;;;;;-149.78;100.00;50447.97;5040290;28;20113;-63
2022/02/04 12:44:02;;;;;;;8.27;1.35;;;;;;;-149.78;100.00;50451.88;5035743;28;20049;-63
2022/02/04 12:46:29;;;;;;;10.02;1.55;;;;;;;-149.78;100.00;50487.09;5042134;28;20087;-63
2022/02/04 12:48:56;;;;;;;4.82;0.85;;;;;;;-149.78;100.00;50451.88;5047946;28;20025;-62
2022/02/04 12:51:40;;;;;;;6.20;1.30;;;;;;;-149.78;100.00;50467.53;5051855;28;20033;-62
2022/02/04 12:54:09;;;;;;;5.82;1.30;;;;;;;-149.78;100.00;50451.88;5036505;28;20026;-64
2022/02/04 12:56:43;;;;;;;9.77;1.83;;;;;;;-149.78;100.00;50483.19;5043412;28;20559;-64
2022/02/04 13:02:40;;;;;;;8.23;2.53;;;;;;;-149.78;100.00;50467.53;5039837;28;20025;-64
2022/02/04 13:10:21;;;;;;;4.70;1.40;;;;;;;-149.78;100.00;50467.53;5042348;28;20063;-63
2022/02/04 13:12:56;;;;;;;8.88;2.22;;;;;;;-149.78;100.00;50473.41;5041509;28;20372;-63
2022/02/04 13:15:23;;;;;;;6.05;1.50;;;;;;;-149.78;100.00;50479.28;5044923;28;20121;-62
2022/02/04 13:17:49;;;;;;;6.30;1.10;;;;;;;-149.78;100.00;50479.28;5047551;28;20381;-62
2022/02/04 13:20:16;;;;;;;3.33;1.10;;;;;;;-149.78;100.00;50487.09;5043977;28;20033;-63
2022/02/04 13:22:43;;;;;;;1.10;0.70;;;;;;;-149.78;100.00;50479.28;5036514;28;20045;-62
2022/02/04 13:25:16;;;;;;;1.88;0.77;;;;;;;-149.78;100.00;50487.09;5043100;28;20072;-63
2022/02/04 13:28:18;;;;;;;5.20;0.95;;;;;;;-149.78;100.00;50463.63;5044491;28;20028;-63
2022/02/04 13:31:04;;;;;;;6.47;1.48;;;;;;;-149.78;100.00;50459.72;5062207;28;20388;-62
2022/02/04 13:33:38;;;;;;;3.33;0.70;;;;;;;-149.78;100.00;50463.63;5049245;28;20032;-63
2022/02/04 13:36:28;;;;;;;6.15;1.35;;;;;;;-149.78;100.00;50514.47;5034928;28;20025;-62
2022/02/04 13:39:14;;;;;;;5.97;1.35;;;;;;;-149.78;100.00;50475.34;5043123;28;20099;-62
2022/02/04 13:47:03;;;;;;;6.25;1.38;;;;;;;-149.78;100.00;50479.28;5063399;28;20037;-62
2022/02/04 13:52:16;;;;;;;7.97;2.55;;;;;;;-149.78;100.00;50469.50;5068916;28;20037;-62
2022/02/04 13:59:55;;;;;;;7.32;1.70;;;;;;;-149.78;100.00;50502.75;5043889;28;20025;-62
2022/02/04 14:02:27;;;;;;;4.55;1.80;;;;;;;-149.78;100.00;50432.31;5064703;28;20040;-62
2022/02/04 14:04:59;;;;;;;3.55;1.40;;;;;;;-149.78;100.00;50463.63;5068557;28;20369;-62
2022/02/04 14:07:36;;;;;;;5.85;1.52;;;;;;;-149.78;100.00;50502.75;5058092;28;20413;-62
2022/02/04 14:10:15;;;;;;;6.05;1.10;;;;;;;-149.78;100.00;50457.75;5048491;28;20487;-62
2022/02/04 14:12:42;;;;;;;3.90;1.13;;;;;;;-149.78;100.00;50463.63;5061891;28;20033;-62
2022/02/04 14:15:07;;;;;;;7.28;1.23;;;;;;;-149.78;100.00;50440.16;5053137;28;20045;-62
2022/02/04 14:17:36;;;;;;;2.67;1.08;;;;;;;-149.78;100.00;50451.88;5070861;28;20405;-62
2022/02/04 14:20:03;;;;;;;6.45;1.13;;;;;;;-149.78;100.00;50473.41;5061581;28;20029;-62
2022/02/04 14:22:28;;;;;;;5.15;1.08;;;;;;;-149.78;100.00;50467.53;5063114;28;20045;-62
2022/02/04 14:25:00;;;;;;;5.93;1.27;;;;;;;-149.78;100.00;50455.81;5068916;28;20029;-62
2022/02/04 14:27:26;;;;;;;3.20;1.13;;;;;;;-149.78;100.00;50494.91;5041872;28;20140;-61
2022/02/04 14:29:59;;;;;;;3.88;0.88;;;;;;;-149.78;100.00;50424.50;5059032;28;20379;-62
2022/02/04 14:32:36;;;;;;;7.38;1.02;;;;;;;-149.78;100.00;50451.88;5060184;28;20033;-61
2022/02/04 14:35:09;;;;;;;1.83;0.70;;;;;;;-149.78;100.00;50506.66;5035636;28;20032;-63
2022/02/04 14:58:58;;;;;;;11.18;2.63;;;;;;;-149.78;100.00;50479.28;5044928;28;20396;-63
2022/02/04 15:04:03;;;;;;;11.40;2.10;;;;;;;-149.78;100.00;50459.72;5061447;28;20037;-63
2022/02/04 15:06:37;;;;;;;18.80;3.00;;;;;;;-149.78;100.00;50512.50;5047847;28;20116;-63
2022/02/04 15:09:07;;;;;;;9.48;2.65;;;;;;;-149.78;100.00;50479.28;5047999;28;20029;-63
2022/02/04 15:11:35;;;;;;;9.40;2.40;;;;;;;-149.78;100.00;50491.00;5045159;28;20058;-63
2022/02/04 15:14:04;;;;;;;7.15;2.30;;;;;;;-149.78;100.00;50459.72;5042611;28;20420;-63
2022/02/04 15:16:30;;;;;;;9.05;2.10;;;;;;;-149.78;100.00;50459.72;5046195;28;20411;-63
2022/02/04 15:18:56;;;;;;;6.15;1.60;;;;;;;-149.78;100.00;50471.44;5038057;28;20059;-63
2022/02/04 15:21:23;;;;;;;7.35;2.72;;;;;;;-149.78;100.00;50459.72;5042920;28;20049;-63
2022/02/04 15:23:52;;;;;;;10.85;3.03;;;;;;;-149.78;100.00;50498.81;5041645;28;20052;-63
2022/02/04 15:26:20;;;;;;;10.90;2.60;;;;;;;-149.78;100.00;50471.44;5044105;28;20038;-63
2022/02/04 15:31:42;;;;;;;10.82;2.03;;;;;;;-149.78;100.00;50440.16;5039486;28;20033;-63
2022/02/04 15:34:03;;;;;;;6.90;1.55;;;;;;;-149.78;100.00;50461.66;5046962;28;20033;-63
2022/02/04 15:36:37;;;;;;;12.77;1.90;;;;;;;-149.78;100.00;50463.63;5062204;28;20029;-63
2022/02/04 15:39:06;;;;;;;6.82;1.60;;;;;;;-149.78;100.00;50467.53;5043090;28;20045;-63
2022/02/04 15:41:33;;;;;;;8.98;2.08;;;;;;;-149.78;100.00;50463.63;5042761;28;20509;-63
2022/02/04 15:44:06;;;;;;;10.15;1.55;;;;;;;-149.78;100.00;50459.72;5042379;28;20496;-63
2022/02/04 15:49:15;;;;;;;12.85;1.73;;;;;;;-149.78;100.00;50428.41;5042120;28;20314;-63
2022/02/04 15:57:47;;;;;;;5.40;1.33;;;;;;;-149.78;100.00;50461.66;5040078;28;20063;-63
2022/02/04 16:02:31;;;;;;;5.00;1.50;;;;;;;-149.78;100.00;50451.88;5041508;28;20091;-63
2022/02/04 16:04:56;;;;;;;6.13;1.30;;;;;;;-149.78;100.00;50487.09;5039435;28;20030;-63
2022/02/04 16:07:24;;;;;;;5.97;0.85;;;;;;;-149.78;100.00;50471.44;5046864;28;20048;-63
2022/02/04 16:10:02;;;;;;;3.15;0.90;;;;;;;-149.78;100.00;50467.53;5041525;28;20038;-63
2022/02/04 16:12:36;;;;;;;2.53;1.00;;;;;;;-149.78;100.00;50537.94;5038504;28;20044;-63
2022/02/04 16:15:10;;;;;;;3.60;1.10;;;;;;;-149.78;100.00;50471.44;5041960;28;20033;-63
2022/02/04 16:17:40;;;;;;;2.38;1.38;;;;;;;-149.78;100.00;50508.59;5038317;28;20032;-64
2022/02/04 16:25:16;;;;;;;2.88;1.30;;;;;;;-149.78;100.00;50502.75;5048720;28;20048;-63
2022/02/04 16:30:11;;;;;;;2.67;1.23;;;;;;;-149.78;100.00;50481.22;5044054;28;20396;-63
2022/02/04 16:32:37;;;;;;;5.40;1.30;;;;;;;-149.78;100.00;50494.91;5039404;28;20033;-64
2022/02/04 16:35:05;;;;;;;8.23;1.20;;;;;;;-149.78;100.00;50471.44;5041185;28;20045;-64
2022/02/04 16:37:38;;;;;;;5.43;1.50;;;;;;;-149.78;100.00;50487.09;5041799;28;20041;-63
2022/02/04 16:40:14;;;;;;;5.40;1.83;;;;;;;-149.78;100.00;50463.63;5041207;28;20044;-63
2022/02/04 16:42:41;;;;;;;6.72;1.90;;;;;;;-149.78;100.00;50522.28;5042202;28;20040;-63
2022/02/04 16:45:07;;;;;;;10.00;2.10;;;;;;;-149.78;100.00;50485.13;5043808;28;20049;-64
2022/02/04 16:47:33;;;;;;;9.02;1.98;;;;;;;-149.78;100.00;50526.22;5042482;28;20400;-63
2022/02/04 16:50:01;;;;;;;6.45;2.08;;;;;;;-149.78;100.00;50506.66;5043805;28;20033;-63
2022/02/04 16:52:31;;;;;;;6.07;1.75;;;;;;;-149.78;100.00;50481.22;5043245;28;20044;-63
2022/02/04 16:54:58;;;;;;;5.07;1.40;;;;;;;-149.78;100.00;50514.47;5043881;28;20122;-63
2022/02/04 16:57:25;;;;;;;6.75;1.73;;;;;;;-149.78;100.00;50451.88;5043506;28;20029;-63
2022/02/04 16:59:53;;;;;;;9.23;1.70;;;;;;;-149.78;100.00;50510.56;5042683;28;20032;-63
2022/02/04 17:02:20;;;;;;;6.55;1.63;;;;;;;-149.78;100.00;50506.66;5042971;28;20024;-63
2022/02/04 17:04:45;;;;;;;13.77;1.88;;;;;;;-149.78;100.00;50498.81;5044396;28;20041;-63
2022/02/04 17:07:19;;;;;;;7.75;1.77;;;;;;;-149.78;100.00;50510.56;5045680;28;20040;-63
2022/02/04 17:09:48;;;;;;;10.15;1.73;;;;;;;-149.78;100.00;50498.81;5046639;28;20045;-63
2022/02/04 17:12:25;;;;;;;10.32;1.85;;;;;;;-149.78;100.00;50483.19;5045975;28;20036;-64
2022/02/04 17:14:53;;;;;;;9.68;1.63;;;;;;;-149.78;100.00;50494.91;5048367;28;20400;-63
2022/02/04 17:17:23;;;;;;;6.18;1.58;;;;;;;-149.78;100.00;50494.91;5047044;28;20029;-63
2022/02/04 17:20:02;;;;;;;12.85;1.85;;;;;;;-149.78;100.00;50502.75;5047465;28;20063;-63
2022/02/04 17:22:28;;;;;;;10.18;1.63;;;;;;;-149.78;100.00;50475.34;5047959;28;20103;-63
2022/02/04 17:24:53;;;;;;;13.48;1.45;;;;;;;-149.78;100.00;50471.44;5046543;28;21318;-63
2022/02/04 17:27:20;;;;;;;11.85;1.70;;;;;;;-149.78;100.00;50506.66;5048055;28;20451;-63
2022/02/04 17:29:45;;;;;;;5.50;1.58;;;;;;;-149.78;100.00;50506.66;5048237;28;20047;-63
2022/02/04 17:32:12;;;;;;;4.20;1.45;;;;;;;-149.78;100.00;50479.28;5046698;28;20025;-63
2022/02/04 17:34:39;;;;;;;8.05;1.55;;;;;;;-149.78;100.00;50510.56;5048465;28;20025;-63
2022/02/04 17:37:05;;;;;;;10.63;2.17;;;;;;;-149.78;100.00;50487.09;5046226;28;20029;-63
2022/02/04 17:39:30;;;;;;;12.57;1.80;;;;;;;-149.78;100.00;50471.44;5041669;28;20106;-63